createdAt,value
2022-11-28T00:02:24.686Z,101059.38
2022-11-28T00:04:55.028Z,101078.88
2022-11-28T00:07:28.494Z,101062.97
2022-11-28T00:09:58.921Z,101072.66
2022-11-28T00:12:30.085Z,101081.03
2022-11-28T00:15:00.107Z,101080.09
2022-11-28T00:17:32.860Z,101085.38
2022-11-28T00:20:02.891Z,101086.38
2022-11-28T00:22:33.241Z,101084.88
2022-11-28T00:25:03.312Z,101085.91
2022-11-28T00:27:36.447Z,101093.09
2022-11-28T00:30:07.151Z,101095.09
2022-11-28T00:32:37.518Z,101087.91
2022-11-28T00:35:08.057Z,101065.31
2022-11-28T00:37:38.459Z,101094.56
2022-11-28T00:40:09.051Z,101086.69
2022-11-28T00:42:39.597Z,101081.78
2022-11-28T00:45:10.047Z,101089.88
2022-11-28T00:47:40.432Z,101089.09
2022-11-28T00:50:10.893Z,101092.34
2022-11-28T00:52:41.414Z,101093.34
2022-11-28T00:55:14.219Z,101094.34
2022-11-28T00:57:44.633Z,101088.41
2022-11-28T01:00:15.100Z,101097.28
2022-11-28T01:02:45.550Z,101100.00
2022-11-28T01:05:15.381Z,101094.81
2022-11-28T01:07:45.826Z,101101.00
2022-11-28T01:10:15.921Z,101096.34
2022-11-28T01:12:49.656Z,101090.66
2022-11-28T01:15:19.738Z,101085.28
2022-11-28T01:17:50.120Z,101082.38
2022-11-28T01:20:20.311Z,101079.88
2022-11-28T01:22:51.074Z,101088.03
2022-11-28T01:25:20.728Z,101086.28
2022-11-28T01:27:51.060Z,101074.50
2022-11-28T01:30:21.018Z,101080.69
2022-11-28T01:32:51.389Z,101069.09
2022-11-28T01:35:21.222Z,101062.69
2022-11-28T01:37:51.594Z,101065.19
2022-11-28T01:40:21.637Z,101063.66
2022-11-28T01:42:52.089Z,101058.78
2022-11-28T01:45:44.217Z,101062.94
2022-11-28T01:48:19.435Z,101061.94
2022-11-28T01:50:51.449Z,101061.47
2022-11-28T01:53:23.465Z,101052.34
2022-11-28T01:56:08.964Z,101055.03
2022-11-28T01:58:45.835Z,101056.53
2022-11-28T02:01:17.057Z,101045.94
2022-11-28T02:03:50.149Z,101052.59
2022-11-28T02:06:24.685Z,101050.16
2022-11-28T02:08:56.983Z,101053.84
2022-11-28T02:11:54.648Z,101029.22
2022-11-28T02:14:46.060Z,101056.50
2022-11-28T02:17:31.206Z,101053.56
2022-11-28T02:20:10.542Z,101045.69
2022-11-28T02:22:49.179Z,101027.44
2022-11-28T02:25:59.379Z,101042.69
2022-11-28T02:28:59.542Z,101026.97
2022-11-28T02:32:03.783Z,101033.00
2022-11-28T02:34:46.714Z,101029.06
2022-11-28T02:37:48.206Z,101018.53
2022-11-28T02:40:37.248Z,101018.25
2022-11-28T02:43:16.603Z,101016.84
2022-11-28T02:45:58.568Z,101011.47
2022-11-28T02:48:42.882Z,101010.16
2022-11-28T02:51:22.333Z,101004.31
2022-11-28T02:53:55.230Z,101000.38
2022-11-28T02:56:26.587Z,100971.84
2022-11-28T02:58:57.324Z,100989.38
2022-11-28T03:01:36.319Z,100984.91
2022-11-28T03:04:29.767Z,100988.59
2022-11-28T03:07:13.518Z,100993.75
2022-11-28T03:10:21.836Z,100989.09
2022-11-28T03:12:58.738Z,100987.91
2022-11-28T03:15:38.245Z,100983.47
2022-11-28T03:18:47.017Z,100983.97
2022-11-28T03:21:26.579Z,100990.34
2022-11-28T03:24:21.962Z,100973.88
2022-11-28T03:27:00.398Z,100980.97
2022-11-28T03:29:42.736Z,100981.47
2022-11-28T03:32:19.225Z,100971.13
2022-11-28T03:34:57.828Z,100970.13
2022-11-28T03:37:41.432Z,100962.31
2022-11-28T03:40:14.373Z,100954.94
2022-11-28T03:42:50.277Z,100953.44
2022-11-28T03:45:23.867Z,100951.50
2022-11-28T03:48:08.510Z,100955.16
2022-11-28T03:50:48.375Z,100957.31
2022-11-28T03:53:34.677Z,100958.56
2022-11-28T03:56:21.334Z,100949.13
2022-11-28T03:58:53.861Z,100939.47
2022-11-28T04:01:29.721Z,100940.91
2022-11-28T04:04:05.429Z,100936.00
2022-11-28T04:06:51.641Z,100929.19
2022-11-28T04:09:54.876Z,100927.22
2022-11-28T04:13:09.806Z,100920.09
2022-11-28T04:15:43.381Z,100926.25
2022-11-28T04:18:19.459Z,100932.16
2022-11-28T04:21:00.141Z,100921.63
2022-11-28T04:23:33.461Z,100918.72
2022-11-28T04:26:19.034Z,100918.00
2022-11-28T04:28:51.098Z,100920.97
2022-11-28T04:31:23.828Z,100930.09
2022-11-28T04:34:00.724Z,100934.75
2022-11-28T04:36:33.858Z,100928.84
2022-11-28T04:39:06.433Z,100934.50
2022-11-28T04:41:51.636Z,100932.06
2022-11-28T04:44:22.185Z,100913.84
2022-11-28T04:46:55.990Z,100928.59
2022-11-28T04:49:28.810Z,100932.03
2022-11-28T04:52:00.327Z,100926.38
2022-11-28T04:54:39.783Z,100925.81
2022-11-28T04:57:15.895Z,100933.38
2022-11-28T04:59:48.055Z,100927.34
2022-11-28T05:02:20.670Z,100919.97
2022-11-28T05:04:54.346Z,100926.84
2022-11-28T05:07:25.507Z,100923.94
2022-11-28T05:09:56.979Z,100926.38
2022-11-28T05:12:27.119Z,100913.34
2022-11-28T05:14:57.797Z,100912.84
2022-11-28T05:17:27.414Z,100910.91
2022-11-28T05:19:57.116Z,100919.53
2022-11-28T05:22:28.339Z,100912.38
2022-11-28T05:24:58.553Z,100909.19
2022-11-28T05:27:28.572Z,100895.44
2022-11-28T05:29:59.050Z,100891.97
2022-11-28T05:32:32.444Z,100888.03
2022-11-28T05:35:02.897Z,100897.91
2022-11-28T05:37:33.054Z,100900.59
2022-11-28T05:40:03.721Z,100894.91
2022-11-28T05:42:38.526Z,100896.41
2022-11-28T05:45:09.633Z,100903.53
2022-11-28T05:47:39.648Z,100898.13
2022-11-28T05:50:10.680Z,100891.50
2022-11-28T05:52:40.267Z,100897.81
2022-11-28T05:55:10.468Z,100904.31
2022-11-28T05:57:40.906Z,100901.13
2022-11-28T06:00:11.381Z,100898.34
2022-11-28T06:02:43.242Z,100901.13
2022-11-28T06:05:35.042Z,100906.03
2022-11-28T06:08:04.795Z,100902.88
2022-11-28T06:10:35.485Z,100905.34
2022-11-28T06:13:05.888Z,100884.69
2022-11-28T06:15:38.467Z,100892.28
2022-11-28T06:18:09.477Z,100884.00
2022-11-28T06:20:39.731Z,100882.00
2022-11-28T06:23:10.320Z,100877.38
2022-11-28T06:25:40.613Z,100876.44
2022-11-28T06:28:11.017Z,100871.53
2022-11-28T06:30:41.123Z,100869.81
2022-11-28T06:33:11.586Z,100873.97
2022-11-28T06:35:41.943Z,100879.91
2022-11-28T06:38:14.336Z,100862.91
2022-11-28T06:40:44.701Z,100868.06
2022-11-28T06:43:15.100Z,100858.47
2022-11-28T06:45:45.127Z,100871.78
2022-11-28T06:48:15.561Z,100867.41
2022-11-28T06:50:45.450Z,100867.19
2022-11-28T06:53:19.178Z,100868.56
2022-11-28T06:55:49.319Z,100863.81
2022-11-28T06:58:19.706Z,100878.59
2022-11-28T07:00:49.765Z,100877.41
2022-11-28T07:03:20.268Z,100872.72
2022-11-28T07:05:50.213Z,100867.28
2022-11-28T07:08:20.989Z,100865.81
2022-11-28T07:10:51.484Z,100863.38
2022-11-28T07:13:21.929Z,100857.47
2022-11-28T07:15:53.319Z,100860.69
2022-11-28T07:18:23.806Z,100847.41
2022-11-28T07:20:53.802Z,100849.13
2022-11-28T07:23:23.635Z,100858.97
2022-11-28T07:25:58.882Z,100851.78
2022-11-28T07:28:29.977Z,100853.75
2022-11-28T07:31:14.840Z,100838.81
2022-11-28T07:33:47.597Z,100849.13
2022-11-28T07:36:20.647Z,100852.09
2022-11-28T07:38:56.790Z,100854.56
2022-11-28T07:41:27.621Z,100862.88
2022-11-28T07:44:01.627Z,100861.28
2022-11-28T07:46:33.503Z,100866.53
2022-11-28T07:49:05.436Z,100868.72
2022-11-28T07:51:36.128Z,100858.63
2022-11-28T07:54:07.049Z,100854.41
2022-11-28T07:57:10.966Z,100862.81
2022-11-28T07:59:30.103Z,100857.91
2022-11-28T08:02:00.396Z,100859.88
2022-11-28T08:04:31.070Z,100861.88
2022-11-28T08:07:01.074Z,100854.00
2022-11-28T08:09:33.748Z,100854.97
2022-11-28T08:14:34.341Z,100848.59
2022-11-28T08:17:04.498Z,100856.75
2022-11-28T08:19:35.527Z,100867.34
2022-11-28T08:22:05.676Z,100874.22
2022-11-28T08:24:36.517Z,100873.00
2022-11-28T08:27:06.532Z,100868.63
2022-11-28T08:29:36.360Z,100860.28
2022-11-28T08:32:06.978Z,100872.34
2022-11-28T08:34:36.993Z,100874.78
2022-11-28T08:37:07.441Z,100883.81
2022-11-28T08:39:37.317Z,100884.38
2022-11-28T08:42:07.366Z,100897.44
2022-11-28T08:44:37.800Z,100891.66
2022-11-28T08:47:08.325Z,100902.25
2022-11-28T08:49:38.927Z,100897.34
2022-11-28T08:52:09.561Z,100889.75
2022-11-28T08:54:39.747Z,100894.56
2022-11-28T08:57:13.173Z,100893.91
2022-11-28T08:59:43.417Z,100894.69
2022-11-28T09:02:14.173Z,100891.25
2022-11-28T09:04:44.765Z,100896.16
2022-11-28T09:07:16.143Z,100900.03
2022-11-28T09:09:47.276Z,100897.91
2022-11-28T09:12:17.982Z,100873.84
2022-11-28T09:14:48.017Z,100896.66
2022-11-28T09:17:18.550Z,100898.47
2022-11-28T09:19:48.589Z,100894.72
2022-11-28T09:22:19.020Z,100893.50
2022-11-28T09:24:49.009Z,100880.88
2022-11-28T09:27:19.549Z,100887.34
2022-11-28T09:29:49.317Z,100889.47
2022-11-28T09:32:19.754Z,100898.06
2022-11-28T09:34:49.389Z,100899.66
2022-11-28T09:37:19.765Z,100908.50
2022-11-28T09:40:11.939Z,100907.72
2022-11-28T09:42:45.245Z,100902.69
2022-11-28T09:45:18.892Z,100905.13
2022-11-28T09:47:56.698Z,100895.47
2022-11-28T09:50:32.117Z,100899.72
2022-11-28T09:53:07.803Z,100868.38
2022-11-28T09:55:49.381Z,100889.84
2022-11-28T09:58:50.269Z,100889.19
2022-11-28T10:01:27.218Z,100876.94
2022-11-28T10:04:06.131Z,100894.72
2022-11-28T10:06:53.651Z,100895.56
2022-11-28T10:09:39.700Z,100904.63
2022-11-28T10:12:36.493Z,100902.72
2022-11-28T10:15:29.754Z,100902.59
2022-11-28T10:18:12.520Z,100902.97
2022-11-28T10:20:47.864Z,100895.91
2022-11-28T10:23:27.403Z,100902.81
2022-11-28T10:26:06.432Z,100883.03
2022-11-28T10:28:40.076Z,100899.41
2022-11-28T10:31:32.997Z,100904.88
2022-11-28T10:34:24.159Z,100902.25
2022-11-28T10:37:05.112Z,100907.41
2022-11-28T10:39:39.107Z,100914.97
2022-11-28T10:42:17.268Z,100919.75
2022-11-28T10:45:00.098Z,100915.63
2022-11-28T10:47:55.294Z,100916.88
2022-11-28T10:50:46.425Z,100915.41
2022-11-28T10:53:51.722Z,100910.97
2022-11-28T10:56:48.816Z,100920.50
2022-11-28T10:59:59.148Z,100919.75
2022-11-28T11:02:37.013Z,100912.13
2022-11-28T11:05:09.079Z,100912.91
2022-11-28T11:07:40.162Z,100915.81
2022-11-28T11:10:20.682Z,100913.63
2022-11-28T11:12:56.909Z,100910.66
2022-11-28T11:15:31.242Z,100912.47
2022-11-28T11:18:34.229Z,100899.63
2022-11-28T11:21:30.573Z,100903.50
2022-11-28T11:24:19.315Z,100901.53
2022-11-28T11:26:52.789Z,100885.50
2022-11-28T11:29:43.327Z,100894.38
2022-11-28T11:32:51.422Z,100905.72
2022-11-28T11:35:26.364Z,100897.72
2022-11-28T11:38:37.948Z,100897.91
2022-11-28T11:41:31.580Z,100874.16
2022-11-28T11:44:30.373Z,100871.13
2022-11-28T11:47:05.068Z,100888.06
2022-11-28T11:49:43.593Z,100887.38
2022-11-28T11:52:14.255Z,100885.13
2022-11-28T11:54:59.556Z,100861.84
2022-11-28T11:57:37.226Z,100875.84
2022-11-28T12:00:16.619Z,100881.69
2022-11-28T12:02:59.925Z,100878.84
2022-11-28T12:05:59.317Z,100863.22
2022-11-28T12:08:41.996Z,100867.28
2022-11-28T12:11:16.033Z,100870.06
2022-11-28T12:13:46.787Z,100875.59
2022-11-28T12:16:35.607Z,100870.75
2022-11-28T12:19:17.445Z,100866.19
2022-11-28T12:22:05.935Z,100867.47
2022-11-28T12:24:49.793Z,100874.06
2022-11-28T12:27:42.098Z,100884.25
2022-11-28T12:30:12.274Z,100887.16
2022-11-28T12:32:51.564Z,100885.88
2022-11-28T12:35:26.268Z,100888.94
2022-11-28T12:38:13.252Z,100868.47
2022-11-28T12:41:10.887Z,100880.56
2022-11-28T12:44:06.608Z,100882.66
2022-11-28T12:46:50.499Z,100870.69
2022-11-28T12:49:45.991Z,100877.44
2022-11-28T12:52:48.384Z,100874.28
2022-11-28T12:55:25.207Z,100877.00
2022-11-28T12:58:16.431Z,100879.22
2022-11-28T13:01:24.344Z,100872.97
2022-11-28T13:04:30.342Z,100870.16
2022-11-28T13:07:36.009Z,100861.25
2022-11-28T13:10:20.660Z,100854.31
2022-11-28T13:13:05.473Z,100860.44
2022-11-28T13:15:59.665Z,100858.91
2022-11-28T13:18:30.199Z,100860.03
2022-11-28T13:21:17.630Z,100866.91
2022-11-28T13:24:28.184Z,100861.50
2022-11-28T13:27:02.859Z,100860.78
2022-11-28T13:29:36.021Z,100854.97
2022-11-28T13:32:26.705Z,100855.13
2022-11-28T13:34:57.752Z,100835.03
2022-11-28T13:40:41.233Z,100850.84
2022-11-28T13:43:24.051Z,100856.56
2022-11-28T13:45:55.096Z,100856.13
2022-11-28T13:49:06.151Z,100867.38
2022-11-28T13:51:33.778Z,100858.94
2022-11-28T13:54:20.011Z,100833.34
2022-11-28T13:57:08.013Z,100854.75
2022-11-28T13:59:39.481Z,100852.34
2022-11-28T14:02:36.251Z,100850.28
2022-11-28T14:05:23.048Z,100850.50
2022-11-28T14:07:58.318Z,100842.38
2022-11-28T14:10:46.649Z,100843.59
2022-11-28T14:13:33.461Z,100841.69
2022-11-28T14:16:18.573Z,100839.56
2022-11-28T14:19:16.181Z,100837.63
2022-11-28T14:22:15.205Z,100830.19
2022-11-28T14:25:06.815Z,100834.31
2022-11-28T14:27:40.590Z,100829.03
2022-11-28T14:30:38.702Z,100833.66
2022-11-28T14:33:39.538Z,100836.28
2022-11-28T14:36:30.808Z,100830.13
2022-11-28T14:39:13.111Z,100824.28
2022-11-28T14:42:05.500Z,100822.84
2022-11-28T14:44:56.672Z,100823.09
2022-11-28T14:47:32.925Z,100814.66
2022-11-28T14:50:06.227Z,100817.56
2022-11-28T14:52:42.794Z,100820.63
2022-11-28T14:55:18.046Z,100808.44
2022-11-28T14:58:01.060Z,100802.47
2022-11-28T15:00:39.781Z,100794.03
2022-11-28T15:03:15.973Z,100791.59
2022-11-28T15:05:51.190Z,100780.41
2022-11-28T15:08:42.439Z,100782.13
2022-11-28T15:11:31.045Z,100774.94
2022-11-28T15:14:25.051Z,100767.16
2022-11-28T15:17:04.363Z,100780.13
2022-11-28T15:19:55.263Z,100778.53
2022-11-28T15:22:43.580Z,100762.47
2022-11-28T15:25:36.745Z,100766.00
2022-11-28T15:28:17.582Z,100761.91
2022-11-28T15:30:51.630Z,100765.50
2022-11-28T15:33:23.389Z,100765.38
2022-11-28T15:36:01.569Z,100769.38
2022-11-28T15:38:33.325Z,100766.97
2022-11-28T15:41:03.977Z,100752.94
2022-11-28T15:43:34.549Z,100751.94
2022-11-28T15:46:07.095Z,100758.63
2022-11-28T15:48:40.487Z,100760.97
2022-11-28T15:51:28.579Z,100758.34
2022-11-28T15:53:58.763Z,100759.72
2022-11-28T15:56:29.445Z,100754.72
2022-11-28T15:58:59.615Z,100765.25
2022-11-28T16:01:30.744Z,100753.41
2022-11-28T16:04:14.361Z,100755.13
2022-11-28T16:06:50.784Z,100744.97
2022-11-28T16:09:20.708Z,100738.31
2022-11-28T16:11:53.252Z,100737.03
2022-11-28T16:14:46.962Z,100731.69
2022-11-28T16:17:34.052Z,100721.53
2022-11-28T16:20:05.709Z,100731.78
2022-11-28T16:22:38.565Z,100728.63
2022-11-28T16:25:26.359Z,100722.09
2022-11-28T16:27:58.608Z,100716.13
2022-11-28T16:30:44.714Z,100715.91
2022-11-28T16:33:38.215Z,100700.38
2022-11-28T16:36:19.666Z,100690.31
2022-11-28T16:38:52.423Z,100691.38
2022-11-28T16:41:27.411Z,100684.16
2022-11-28T16:44:08.479Z,100676.50
2022-11-28T16:46:41.610Z,100680.13
2022-11-28T16:49:44.924Z,100661.22
2022-11-28T16:52:27.189Z,100671.41
2022-11-28T16:54:58.905Z,100654.72
2022-11-28T16:57:48.000Z,100656.81
2022-11-28T17:00:18.742Z,100647.00
2022-11-28T17:02:52.542Z,100625.06
2022-11-28T17:05:23.422Z,100641.94
2022-11-28T17:07:55.133Z,100641.91
2022-11-28T17:10:28.537Z,100637.44
2022-11-28T17:12:58.965Z,100631.47
2022-11-28T17:15:29.472Z,100633.44
2022-11-28T17:18:00.610Z,100627.00
2022-11-28T17:20:31.385Z,100627.47
2022-11-28T17:23:01.413Z,100632.34
2022-11-28T17:25:31.404Z,100619.88
2022-11-28T17:28:01.975Z,100622.88
2022-11-28T17:30:32.007Z,100641.09
2022-11-28T17:33:03.153Z,100645.38
2022-11-28T17:35:37.899Z,100626.69
2022-11-28T17:38:08.389Z,100636.63
2022-11-28T17:40:39.882Z,100631.75
2022-11-28T17:43:21.545Z,100626.34
2022-11-28T17:45:51.930Z,100627.41
2022-11-28T17:48:22.576Z,100634.19
2022-11-28T17:50:54.164Z,100621.22
2022-11-28T17:53:25.347Z,100622.88
2022-11-28T17:56:00.661Z,100619.06
2022-11-28T17:58:31.635Z,100621.38
2022-11-28T18:01:01.877Z,100599.38
2022-11-28T18:03:35.465Z,100600.78
2022-11-28T18:06:07.152Z,100592.28
2022-11-28T18:08:37.905Z,100557.78
2022-11-28T18:11:11.542Z,100578.44
2022-11-28T18:13:43.611Z,100570.94
2022-11-28T18:16:16.809Z,100583.59
2022-11-28T18:18:48.841Z,100574.72
2022-11-28T18:21:19.570Z,100570.31
2022-11-28T18:23:52.655Z,100569.06
2022-11-28T18:26:27.195Z,100567.16
2022-11-28T18:28:57.468Z,100571.41
2022-11-28T18:31:31.017Z,100565.94
2022-11-28T18:34:04.176Z,100570.56
2022-11-28T18:36:38.180Z,100560.13
2022-11-28T18:39:13.117Z,100569.44
2022-11-28T18:41:44.127Z,100565.31
2022-11-28T18:44:14.304Z,100572.06
2022-11-28T18:46:47.069Z,100560.56
2022-11-28T18:49:17.772Z,100565.38
2022-11-28T18:51:49.588Z,100558.84
2022-11-28T18:54:21.787Z,100557.78
2022-11-28T18:56:52.572Z,100562.78
2022-11-28T18:59:22.796Z,100551.66
2022-11-28T19:01:53.432Z,100553.88
2022-11-28T19:04:23.702Z,100550.63
2022-11-28T19:06:54.866Z,100555.75
2022-11-28T19:09:24.924Z,100551.47
2022-11-28T19:11:56.355Z,100547.75
2022-11-28T19:14:26.501Z,100540.41
2022-11-28T19:16:58.152Z,100545.28
2022-11-28T19:19:28.269Z,100540.09
2022-11-28T19:21:59.134Z,100548.25
2022-11-28T19:24:29.197Z,100535.97
2022-11-28T19:27:01.206Z,100536.41
2022-11-28T19:29:31.236Z,100529.19
2022-11-28T19:32:02.306Z,100531.59
2022-11-28T19:34:32.284Z,100537.28
2022-11-28T19:37:06.036Z,100521.47
2022-11-28T19:39:36.220Z,100533.84
2022-11-28T19:42:07.130Z,100539.75
2022-11-28T19:44:37.170Z,100542.16
2022-11-28T19:47:10.885Z,100507.38
2022-11-28T19:49:40.908Z,100543.09
2022-11-28T19:52:11.624Z,100530.94
2022-11-28T19:54:41.628Z,100532.31
2022-11-28T19:57:12.428Z,100541.00
2022-11-28T19:59:43.087Z,100531.16
2022-11-28T20:02:14.248Z,100544.16
2022-11-28T20:04:45.633Z,100543.88
2022-11-28T20:07:17.153Z,100545.69
2022-11-28T20:09:47.474Z,100544.22
2022-11-28T20:12:18.665Z,100545.47
2022-11-28T20:14:48.724Z,100543.94
2022-11-28T20:17:19.461Z,100543.75
2022-11-28T20:19:50.505Z,100546.28
2022-11-28T20:22:23.077Z,100537.97
2022-11-28T20:24:53.379Z,100542.56
2022-11-28T20:27:24.265Z,100559.66
2022-11-28T20:29:55.586Z,100545.09
2022-11-28T20:32:26.346Z,100552.78
2022-11-28T20:34:56.512Z,100552.38
2022-11-28T20:37:27.163Z,100558.25
2022-11-28T20:39:58.542Z,100560.38
2022-11-28T20:42:29.472Z,100560.41
2022-11-28T20:44:59.501Z,100544.22
2022-11-28T20:47:29.452Z,100556.06
2022-11-28T20:50:02.355Z,100550.94
2022-11-28T20:52:32.376Z,100554.03
2022-11-28T20:55:02.843Z,100557.06
2022-11-28T20:57:35.734Z,100560.88
2022-11-28T21:00:09.688Z,100549.53
2022-11-28T21:02:39.810Z,100559.69
2022-11-28T21:05:10.669Z,100559.16
2022-11-28T21:07:40.789Z,100563.88
2022-11-28T21:10:11.581Z,100573.84
2022-11-28T21:12:41.544Z,100559.13
2022-11-28T21:15:12.068Z,100572.03
2022-11-28T21:17:42.957Z,100568.63
2022-11-28T21:20:14.163Z,100579.25
2022-11-28T21:22:44.117Z,100582.22
2022-11-28T21:25:17.509Z,100576.06
2022-11-28T21:27:47.636Z,100576.06
2022-11-28T21:30:18.256Z,100581.84
2022-11-28T21:32:48.782Z,100573.66
2022-11-28T21:35:19.153Z,100582.25
2022-11-28T21:37:49.319Z,100566.66
2022-11-28T21:40:19.953Z,100565.06
2022-11-28T21:42:50.062Z,100574.47
2022-11-28T21:45:21.004Z,100579.59
2022-11-28T21:47:51.114Z,100577.50
2022-11-28T21:50:21.584Z,100583.28
2022-11-28T21:52:51.693Z,100585.34
2022-11-28T21:55:22.750Z,100584.59
2022-11-28T21:57:52.989Z,100576.56
2022-11-28T22:00:52.255Z,100584.25
2022-11-28T22:03:16.804Z,100607.06
2022-11-28T22:05:47.419Z,100599.34
2022-11-28T22:08:18.341Z,100601.84
2022-11-28T22:10:49.041Z,100598.13
2022-11-28T22:13:20.099Z,100606.50
2022-11-28T22:15:50.619Z,100605.66
2022-11-28T22:18:20.673Z,100605.84
2022-11-28T22:20:53.185Z,100609.81
2022-11-28T22:23:23.312Z,100613.34
2022-11-28T22:25:54.304Z,100606.13
2022-11-28T22:28:24.674Z,100611.88
2022-11-28T22:30:55.523Z,100610.53
2022-11-28T22:33:25.541Z,100610.19
2022-11-28T22:35:56.036Z,100614.91
2022-11-28T22:38:26.541Z,100599.09
2022-11-28T22:40:56.669Z,100608.84
2022-11-28T22:43:27.154Z,100607.16
2022-11-28T22:46:00.151Z,100604.56
2022-11-28T22:48:35.434Z,100600.31
2022-11-28T22:51:20.998Z,100605.63
2022-11-28T22:53:59.790Z,100597.81
2022-11-28T22:56:32.693Z,100602.22
2022-11-28T22:59:06.019Z,100600.06
2022-11-28T23:01:36.410Z,100599.03
2022-11-28T23:04:07.293Z,100603.22
2022-11-28T23:06:37.396Z,100610.31
2022-11-28T23:09:09.649Z,100619.94
2022-11-28T23:11:41.522Z,100612.59
2022-11-28T23:14:15.118Z,100621.56
2022-11-28T23:16:46.556Z,100617.16
2022-11-28T23:19:20.455Z,100622.13
2022-11-28T23:21:51.684Z,100616.16
2022-11-28T23:24:24.362Z,100616.44
2022-11-28T23:26:55.429Z,100614.22
2022-11-28T23:29:26.265Z,100626.84
2022-11-28T23:31:56.224Z,100618.88
2022-11-28T23:34:27.465Z,100628.44
2022-11-28T23:36:57.524Z,100595.44
2022-11-28T23:39:27.405Z,100623.47
2022-11-28T23:42:06.298Z,100628.88
2022-11-28T23:44:36.290Z,100625.66
2022-11-28T23:47:06.907Z,100626.06
2022-11-28T23:49:36.417Z,100634.44
2022-11-28T23:52:06.216Z,100630.09
2022-11-28T23:54:36.628Z,100635.47
2022-11-28T23:57:06.655Z,100634.41
2022-11-28T23:59:37.126Z,100645.41
